Time;durP1;ratioP1;P1;durP2;ratioP2;P2;SDS_P1;SDS_P2;PMS_P1;PMS_P2;Temp;Humidity;BMP_temperature;BMP_pressure;BME280_temperature;BME280_humidity;BME280_pressure;Samples;Min_cycle;Max_cycle;Signal;HPM_P1;HPM_P2
2023/03/23 00:00:26;;;;;;;;;;;;;;;9.62;100.00;95177.56;10505927;28;1955;-74
2023/03/23 00:05:28;;;;;;;;;;;;;;;9.79;100.00;95184.38;10494436;28;1995;-74
2023/03/23 00:10:33;;;;;;;;;;;;;;;9.80;100.00;95175.22;10508651;28;1983;-76
2023/03/23 00:15:41;;;;;;;;;;;;;;;9.87;100.00;95175.72;10518189;28;2013;-74
2023/03/23 00:20:44;;;;;;;;;;;;;;;9.92;100.00;95178.34;10503462;28;1961;-74
2023/03/23 00:25:56;;;;;;;;;;;;;;;9.95;100.00;95167.84;10511160;28;1974;-74
2023/03/23 00:31:07;;;;;;;;;;;;;;;10.05;100.00;95166.91;10513385;28;1935;-73
2023/03/23 00:36:09;;;;;;;;;;;;;;;10.09;100.00;95172.53;10501208;28;2215;-73
2023/03/23 00:41:11;;;;;;;;;;;;;;;10.03;100.00;95163.72;10489560;28;1977;-75
2023/03/23 00:46:13;;;;;;;;;;;;;;;9.97;100.00;95160.28;10491247;28;1950;-75
2023/03/23 00:51:16;;;;;;;;;;;;;;;9.96;100.00;95164.06;10480335;28;2132;-74
2023/03/23 00:56:18;;;;;;;;;;;;;;;9.95;100.00;95167.84;10524724;28;1982;-73
2023/03/23 01:01:29;;;;;;;;;;;;;;;9.90;100.00;95159.81;10500790;28;1970;-74
2023/03/23 01:06:42;;;;;;;;;;;;;;;9.91;100.00;95155.25;10503070;28;2028;-75
2023/03/23 01:11:44;;;;;;;;;;;;;;;9.86;100.00;95158.00;10505064;28;2054;-75
2023/03/23 01:16:45;;;;;;;;;;;;;;;9.77;100.00;95148.97;10501493;28;2009;-75
2023/03/23 01:21:47;;;;;;;;;;;;;;;9.77;100.00;95154.34;10510222;28;2080;-73
2023/03/23 01:26:50;;;;;;;;;;;;;;;9.71;100.00;95157.06;10504616;28;2053;-73
2023/03/23 01:31:51;;;;;;;;;;;;;;;9.66;100.00;95149.03;10507489;28;2047;-75
2023/03/23 01:36:53;;;;;;;;;;;;;;;9.71;100.00;95145.53;10488950;28;2059;-74
2023/03/23 01:41:55;;;;;;;;;;;;;;;9.67;100.00;95149.84;10510451;28;1994;-74
2023/03/23 01:46:57;;;;;;;;;;;;;;;9.63;100.00;95149.63;10500717;28;2022;-74
2023/03/23 01:51:58;;;;;;;;;;;;;;;9.55;100.00;95150.25;10510514;28;2115;-74
2023/03/23 01:57:00;;;;;;;;;;;;;;;9.52;100.00;95150.78;10488008;28;2090;-75
2023/03/23 02:02:04;;;;;;;;;;;;;;;9.55;100.00;95160.97;10512264;28;2006;-73
2023/03/23 02:07:05;;;;;;;;;;;;;;;9.52;100.00;95153.47;10505481;28;2216;-76
2023/03/23 02:12:06;;;;;;;;;;;;;;;9.44;100.00;95146.84;10501179;28;2006;-77
2023/03/23 02:17:08;;;;;;;;;;;;;;;9.40;100.00;95140.44;10492047;28;2095;-76
2023/03/23 02:22:12;;;;;;;;;;;;;;;9.44;100.00;95138.00;10500448;28;2126;-74
2023/03/23 02:27:16;;;;;;;;;;;;;;;9.40;100.00;95143.09;10528404;28;1901;-75
2023/03/23 02:32:18;;;;;;;;;;;;;;;9.50;100.00;95126.13;10511604;28;2051;-75
2023/03/23 02:37:19;;;;;;;;;;;;;;;9.44;100.00;95132.63;10495666;28;2099;-77
2023/03/23 02:42:21;;;;;;;;;;;;;;;9.47;100.00;95126.69;10514951;28;2049;-75
2023/03/23 02:47:23;;;;;;;;;;;;;;;9.45;100.00;95126.19;10494640;28;2096;-74
2023/03/23 02:52:25;;;;;;;;;;;;;;;9.51;100.00;95130.41;10496801;28;1941;-74
2023/03/23 02:57:27;;;;;;;;;;;;;;;9.48;100.00;95136.34;10507157;28;1955;-75
2023/03/23 03:02:32;;;;;;;;;;;;;;;9.39;100.00;95125.41;10505912;28;1998;-73
2023/03/23 03:07:35;;;;;;;;;;;;;;;9.33;100.00;95128.41;10485120;28;2030;-74
2023/03/23 03:12:36;;;;;;;;;;;;;;;9.20;100.00;95130.66;10495369;28;1981;-74
2023/03/23 03:17:40;;;;;;;;;;;;;;;9.19;100.00;95123.72;10508442;28;2075;-75
2023/03/23 03:22:41;;;;;;;;;;;;;;;9.19;100.00;95118.34;10515217;28;2112;-75
2023/03/23 03:27:45;;;;;;;;;;;;;;;9.30;100.00;95112.91;10500099;28;2010;-76
2023/03/23 03:32:48;;;;;;;;;;;;;;;9.33;100.00;95120.38;10498626;28;1978;-75
2023/03/23 03:37:50;;;;;;;;;;;;;;;9.37;100.00;95116.84;10507874;28;2117;-76
2023/03/23 03:42:52;;;;;;;;;;;;;;;9.37;100.00;95135.63;10509640;28;2033;-77
2023/03/23 03:47:54;;;;;;;;;;;;;;;9.39;100.00;95138.81;10486146;28;1982;-73
2023/03/23 03:52:56;;;;;;;;;;;;;;;9.28;100.00;95136.50;10501071;28;2075;-75
2023/03/23 03:57:59;;;;;;;;;;;;;;;9.27;100.00;95143.75;10506774;28;2046;-76
2023/03/23 04:03:01;;;;;;;;;;;;;;;9.34;100.00;95146.91;10507034;28;2070;-75
2023/03/23 04:08:03;;;;;;;;;;;;;;;9.37;100.00;95150.94;10516331;28;2018;-75
2023/03/23 04:13:05;;;;;;;;;;;;;;;9.50;100.00;95141.44;10492301;28;1954;-74
2023/03/23 04:18:06;;;;;;;;;;;;;;;9.57;100.00;95145.38;10501211;28;2014;-75
2023/03/23 04:23:09;;;;;;;;;;;;;;;9.63;100.00;95148.81;10476028;28;2027;-76
2023/03/23 04:28:11;;;;;;;;;;;;;;;9.62;100.00;95150.72;10508098;28;2010;-76
2023/03/23 04:33:14;;;;;;;;;;;;;;;9.63;100.00;95149.63;10493440;28;2035;-73
2023/03/23 04:38:15;;;;;;;;;;;;;;;9.64;100.00;95161.97;10504589;28;2009;-74
2023/03/23 04:43:17;;;;;;;;;;;;;;;9.66;100.00;95164.34;10492245;28;1983;-73
2023/03/23 04:48:20;;;;;;;;;;;;;;;9.70;100.00;95160.81;10495876;28;1915;-74
2023/03/23 04:53:21;;;;;;;;;;;;;;;9.71;100.00;95156.25;10494091;28;2031;-74
2023/03/23 04:58:24;;;;;;;;;;;;;;;9.74;100.00;95172.59;10505135;28;2065;-77
2023/03/23 05:03:26;;;;;;;;;;;;;;;9.72;100.00;95164.03;10515006;28;2039;-77
2023/03/23 05:08:28;;;;;;;;;;;;;;;9.79;100.00;95170.94;10512175;28;2031;-74
2023/03/23 05:13:30;;;;;;;;;;;;;;;9.82;100.00;95165.81;10492005;28;1963;-75
2023/03/23 05:18:32;;;;;;;;;;;;;;;9.90;100.00;95165.19;10491167;28;2049;-73
2023/03/23 05:23:35;;;;;;;;;;;;;;;9.83;100.00;95166.63;10489259;28;2055;-74
2023/03/23 05:28:37;;;;;;;;;;;;;;;9.88;100.00;95177.31;10482552;28;2062;-74
2023/03/23 05:33:38;;;;;;;;;;;;;;;9.90;100.00;95185.88;10510293;28;2101;-74
2023/03/23 05:38:44;;;;;;;;;;;;;;;10.01;100.00;95195.44;10515927;28;1964;-74
2023/03/23 05:43:45;;;;;;;;;;;;;;;10.12;100.00;95202.31;10504870;28;2059;-73
2023/03/23 05:48:47;;;;;;;;;;;;;;;10.21;100.00;95184.47;10512334;28;2028;-74
2023/03/23 05:53:49;;;;;;;;;;;;;;;10.83;100.00;95150.44;10507404;28;1979;-75
2023/03/23 05:58:53;;;;;;;;;;;;;;;10.95;100.00;95136.56;10512719;28;1992;-74
2023/03/23 06:03:58;;;;;;;;;;;;;;;11.08;100.00;95126.97;10487942;28;1974;-74
2023/03/23 06:08:59;;;;;;;;;;;;;;;11.17;100.00;95117.13;10491865;28;2023;-74
2023/03/23 06:14:02;;;;;;;;;;;;;;;11.40;100.00;95123.50;10513438;28;1986;-77
2023/03/23 06:19:04;;;;;;;;;;;;;;;11.44;100.00;95118.31;10487017;28;2113;-74
2023/03/23 06:24:06;;;;;;;;;;;;;;;11.44;100.00;95137.94;10492827;28;2039;-75
2023/03/23 06:29:11;;;;;;;;;;;;;;;11.87;100.00;95146.66;10487087;28;2160;-76
2023/03/23 06:34:15;;;;;;;;;;;;;;;12.10;100.00;95154.91;10477045;28;2073;-73
2023/03/23 06:39:16;;;;;;;;;;;;;;;12.08;100.00;95148.97;10507925;28;1991;-74
2023/03/23 06:44:18;;;;;;;;;;;;;;;11.96;100.00;95144.09;10494912;28;2019;-75
2023/03/23 06:49:20;;;;;;;;;;;;;;;11.56;100.00;95130.22;10516724;28;2004;-75
2023/03/23 06:54:31;;;;;;;;;;;;;;;11.51;100.00;95127.59;10514151;28;2027;-74
2023/03/23 06:59:33;;;;;;;;;;;;;;;11.52;100.00;95120.34;10497118;28;1962;-75
2023/03/23 07:04:35;;;;;;;;;;;;;;;11.78;100.00;95110.72;10501978;28;1907;-73
2023/03/23 07:09:37;;;;;;;;;;;;;;;12.27;100.00;95117.34;10486790;28;1967;-73
2023/03/23 07:14:39;;;;;;;;;;;;;;;12.76;100.00;95125.81;10489688;28;1994;-73
2023/03/23 07:19:40;;;;;;;;;;;;;;;13.08;100.00;95146.41;10514398;28;2078;-70
2023/03/23 07:24:43;;;;;;;;;;;;;;;13.49;100.00;95133.59;10514182;28;1953;-74
2023/03/23 07:29:45;;;;;;;;;;;;;;;13.88;99.90;95134.78;10509129;28;1950;-75
2023/03/23 07:34:56;;;;;;;;;;;;;;;14.17;96.24;95123.47;10508263;28;2048;-73
2023/03/23 07:39:58;;;;;;;;;;;;;;;14.41;94.09;95128.50;10506652;28;2030;-74
2023/03/23 07:44:59;;;;;;;;;;;;;;;14.64;92.06;95128.44;10514448;28;2046;-73
2023/03/23 07:50:01;;;;;;;;;;;;;;;14.59;90.99;95119.34;10516618;28;1958;-74
2023/03/23 07:55:03;;;;;;;;;;;;;;;14.73;89.70;95118.44;10509416;28;2030;-72
2023/03/23 08:00:14;;;;;;;;;;;;;;;15.07;88.35;95123.88;10508138;28;2042;-72
2023/03/23 08:05:17;;;;;;;;;;;;;;;14.90;87.34;95117.66;10508892;28;2009;-72
2023/03/23 08:10:18;;;;;;;;;;;;;;;14.88;86.17;95116.03;10507150;28;1967;-75
2023/03/23 08:15:21;;;;;;;;;;;;;;;14.86;87.50;95117.50;10510080;28;1923;-72
2023/03/23 08:20:25;;;;;;;;;;;;;;;15.22;83.50;95119.91;10495425;28;2032;-72
2023/03/23 08:25:27;;;;;;;;;;;;;;;15.18;83.94;95120.84;10500361;28;1981;-72
2023/03/23 08:30:29;;;;;;;;;;;;;;;15.25;83.32;95123.88;10515243;28;2100;-71
2023/03/23 08:35:32;;;;;;;;;;;;;;;15.47;82.26;95131.84;10511240;28;2156;-72
2023/03/23 08:40:37;;;;;;;;;;;;;;;15.89;78.16;95132.91;10493073;28;1951;-72
2023/03/23 08:45:47;;;;;;;;;;;;;;;16.21;74.81;95128.81;10495249;28;1967;-72
2023/03/23 08:50:49;;;;;;;;;;;;;;;16.56;71.00;95138.75;10489194;28;2050;-73
2023/03/23 08:55:51;;;;;;;;;;;;;;;17.01;69.79;95155.28;10505918;28;2057;-71
2023/03/23 09:00:52;;;;;;;;;;;;;;;17.33;67.92;95161.16;10508955;28;1976;-72
2023/03/23 09:05:54;;;;;;;;;;;;;;;17.64;65.06;95153.38;10490527;28;1947;-73
2023/03/23 09:10:56;;;;;;;;;;;;;;;18.04;63.48;95158.31;10511436;28;2006;-72
2023/03/23 09:15:58;;;;;;;;;;;;;;;18.61;60.30;95171.09;10509701;28;1967;-73
2023/03/23 09:20:59;;;;;;;;;;;;;;;18.79;57.75;95179.88;10491520;28;1937;-73
2023/03/23 09:26:01;;;;;;;;;;;;;;;18.87;56.01;95182.50;10507817;28;1966;-73
2023/03/23 09:31:04;;;;;;;;;;;;;;;19.60;54.99;95186.28;10485790;28;1967;-73
2023/03/23 09:36:07;;;;;;;;;;;;;;;19.52;54.54;95184.44;10505623;28;2034;-73
2023/03/23 09:41:19;;;;;;;;;;;;;;;19.42;54.12;95183.81;10522942;27;2025;-72
2023/03/23 09:46:21;;;;;;;;;;;;;;;19.23;54.87;95196.44;10504568;28;1531;-72
2023/03/23 09:51:22;;;;;;;;;;;;;;;19.66;53.66;95174.00;10517475;28;1515;-73
2023/03/23 09:56:27;;;;;;;;;;;;;;;19.79;52.53;95177.50;10517848;28;1483;-73
2023/03/23 10:01:29;;;;;;;;;;;;;;;19.55;51.69;95183.78;10489088;28;1989;-73
2023/03/23 10:06:32;;;;;;;;;;;;;;;19.36;53.25;95182.44;10503389;28;2083;-72
2023/03/23 10:11:33;;;;;;;;;;;;;;;19.43;53.75;95179.94;10493569;28;1935;-72
2023/03/23 10:16:35;;;;;;;;;;;;;;;19.33;54.84;95185.84;10507382;28;1911;-73
2023/03/23 10:21:36;;;;;;;;;;;;;;;19.17;57.31;95188.50;10514528;28;2025;-73
2023/03/23 10:26:38;;;;;;;;;;;;;;;18.96;56.49;95195.19;10506888;28;1954;-75
2023/03/23 10:31:40;;;;;;;;;;;;;;;19.01;56.75;95189.53;10514586;28;1966;-71
2023/03/23 10:36:42;;;;;;;;;;;;;;;18.94;53.90;95195.53;10520400;28;1947;-72
2023/03/23 10:41:44;;;;;;;;;;;;;;;18.48;51.65;95189.34;10516214;28;2384;-72
2023/03/23 10:46:48;;;;;;;;;;;;;;;18.47;51.73;95187.75;10513240;28;2014;-72
2023/03/23 10:51:50;;;;;;;;;;;;;;;19.04;50.63;95183.41;10497754;28;1978;-73
2023/03/23 10:56:51;;;;;;;;;;;;;;;18.77;49.85;95185.69;10495525;28;2007;-72
2023/03/23 11:01:54;;;;;;;;;;;;;;;19.14;48.82;95183.72;10502171;28;1970;-72
2023/03/23 11:06:57;;;;;;;;;;;;;;;19.21;49.54;95185.88;10494501;28;2012;-72
2023/03/23 11:11:58;;;;;;;;;;;;;;;19.48;49.77;95191.75;10495621;28;2046;-73
2023/03/23 11:17:02;;;;;;;;;;;;;;;19.37;49.89;95186.75;10494475;28;2014;-73
2023/03/23 11:22:14;;;;;;;;;;;;;;;19.47;49.93;95184.69;10502617;28;1955;-72
2023/03/23 11:27:15;;;;;;;;;;;;;;;19.81;49.29;95178.72;10512116;28;1955;-73
2023/03/23 11:32:17;;;;;;;;;;;;;;;20.30;48.47;95174.97;10509774;28;1937;-72
2023/03/23 11:37:19;;;;;;;;;;;;;;;19.98;49.86;95170.25;10521211;28;1940;-72
2023/03/23 11:42:20;;;;;;;;;;;;;;;20.59;47.27;95173.78;10509404;28;1955;-71
2023/03/23 11:47:22;;;;;;;;;;;;;;;20.68;47.34;95171.69;10506446;28;1974;-71
2023/03/23 11:52:25;;;;;;;;;;;;;;;20.77;46.45;95173.09;10500374;28;1999;-72
2023/03/23 11:57:30;;;;;;;;;;;;;;;20.51;47.02;95164.63;10503210;28;1503;-71
2023/03/23 12:02:32;;;;;;;;;;;;;;;20.23;46.88;95161.91;10524450;28;1910;-71
2023/03/23 12:07:33;;;;;;;;;;;;;;;20.67;46.19;95159.94;10492489;28;2007;-71
2023/03/23 12:12:46;;;;;;;;;;;;;;;21.00;45.63;95151.41;10497331;28;1955;-72
2023/03/23 12:17:47;;;;;;;;;;;;;;;21.03;44.85;95149.88;10509643;28;2165;-72
2023/03/23 12:22:49;;;;;;;;;;;;;;;20.51;46.62;95153.72;10493102;28;1978;-74
2023/03/23 12:27:50;;;;;;;;;;;;;;;20.84;44.83;95144.34;10490571;28;1995;-74
2023/03/23 12:32:52;;;;;;;;;;;;;;;20.70;45.05;95148.34;10517493;28;1931;-73
2023/03/23 12:37:54;;;;;;;;;;;;;;;20.12;45.74;95150.72;10485528;28;2049;-73
2023/03/23 12:42:58;;;;;;;;;;;;;;;20.55;44.35;95149.13;10509814;28;1975;-72
2023/03/23 12:48:00;;;;;;;;;;;;;;;20.46;44.48;95122.00;10510300;28;2053;-74
2023/03/23 12:53:02;;;;;;;;;;;;;;;20.44;44.57;95134.41;10487471;28;2034;-72
2023/03/23 12:58:04;;;;;;;;;;;;;;;20.44;43.77;95124.25;10498806;28;2008;-73
2023/03/23 13:03:10;;;;;;;;;;;;;;;20.02;43.89;95118.50;10488544;28;2070;-71
2023/03/23 13:08:12;;;;;;;;;;;;;;;20.06;43.79;95122.13;10507728;28;1950;-72
2023/03/23 13:13:13;;;;;;;;;;;;;;;19.86;43.33;95120.41;10492463;28;1985;-72
2023/03/23 13:18:16;;;;;;;;;;;;;;;19.53;43.46;95117.88;10504806;28;1968;-71
2023/03/23 13:23:17;;;;;;;;;;;;;;;19.19;43.92;95125.47;10509325;28;1970;-72
2023/03/23 13:28:22;;;;;;;;;;;;;;;19.25;44.55;95117.88;10504614;28;1978;-73
2023/03/23 13:33:24;;;;;;;;;;;;;;;19.47;44.51;95108.38;10490286;28;2117;-73
2023/03/23 13:38:26;;;;;;;;;;;;;;;19.95;45.39;95112.84;10505056;28;2042;-73
2023/03/23 13:43:28;;;;;;;;;;;;;;;19.38;49.43;95114.75;10493027;28;1970;-72
2023/03/23 13:48:30;;;;;;;;;;;;;;;19.51;51.08;95103.81;10492101;28;1974;-73
2023/03/23 13:53:39;;;;;;;;;;;;;;;19.61;50.66;95108.81;10516173;28;1982;-73
2023/03/23 13:58:41;;;;;;;;;;;;;;;19.19;51.75;95117.31;10489273;28;2017;-72
2023/03/23 14:03:43;;;;;;;;;;;;;;;19.03;52.78;95119.19;10514721;28;1995;-74
2023/03/23 14:08:44;;;;;;;;;;;;;;;18.89;53.73;95114.88;10493893;28;2041;-73
2023/03/23 14:13:46;;;;;;;;;;;;;;;19.03;53.79;95106.34;10520410;28;1888;-74
2023/03/23 14:18:48;;;;;;;;;;;;;;;19.04;53.68;95107.13;10503358;28;1979;-73
2023/03/23 14:23:50;;;;;;;;;;;;;;;18.78;53.18;95105.59;10517807;28;1993;-73
2023/03/23 14:28:53;;;;;;;;;;;;;;;18.48;52.77;95107.72;10512598;28;1925;-74
2023/03/23 14:33:55;;;;;;;;;;;;;;;18.34;53.32;95109.97;10489366;28;1945;-72
2023/03/23 14:38:57;;;;;;;;;;;;;;;18.37;53.75;95110.06;10512697;28;1999;-74
2023/03/23 14:43:59;;;;;;;;;;;;;;;17.96;55.48;95115.69;10501482;28;2053;-74
2023/03/23 14:49:00;;;;;;;;;;;;;;;17.81;56.57;95112.47;10516795;28;1986;-74
2023/03/23 14:54:03;;;;;;;;;;;;;;;18.08;56.73;95110.28;10536578;27;1946;-73
2023/03/23 14:59:05;;;;;;;;;;;;;;;18.10;57.40;95108.00;10519147;28;2174;-72
2023/03/23 15:04:07;;;;;;;;;;;;;;;18.09;58.00;95111.88;10511504;28;2097;-73
2023/03/23 15:09:08;;;;;;;;;;;;;;;17.77;60.11;95117.00;10494578;28;2438;-72
2023/03/23 15:14:11;;;;;;;;;;;;;;;17.56;60.65;95116.22;10508092;28;1970;-72
2023/03/23 15:19:13;;;;;;;;;;;;;;;17.56;61.54;95121.66;10498240;28;2401;-73
2023/03/23 15:24:14;;;;;;;;;;;;;;;17.76;63.23;95129.00;10516856;28;1993;-74
2023/03/23 15:29:24;;;;;;;;;;;;;;;17.54;64.99;95126.59;10513622;28;1959;-74
2023/03/23 15:34:26;;;;;;;;;;;;;;;17.36;67.13;95128.66;10500535;28;1967;-72
2023/03/23 15:39:27;;;;;;;;;;;;;;;17.29;69.47;95136.56;10493007;28;2086;-72
2023/03/23 15:44:29;;;;;;;;;;;;;;;17.21;70.93;95134.72;10519023;28;1968;-73
2023/03/23 15:49:35;;;;;;;;;;;;;;;16.96;72.21;95129.13;10522115;28;1982;-72
2023/03/23 15:54:46;;;;;;;;;;;;;;;16.74;75.76;95118.59;10499138;28;1995;-72
2023/03/23 15:59:51;;;;;;;;;;;;;;;16.63;74.96;95123.56;10493371;28;1955;-74
2023/03/23 16:04:54;;;;;;;;;;;;;;;16.55;74.47;95129.03;10513642;28;2024;-73
2023/03/23 16:09:56;;;;;;;;;;;;;;;16.34;81.03;95128.94;10515732;28;2227;-74
2023/03/23 16:14:59;;;;;;;;;;;;;;;16.04;83.67;95126.19;10507881;28;2124;-73
2023/03/23 16:20:03;;;;;;;;;;;;;;;16.09;82.06;95120.56;10504871;28;1994;-72
2023/03/23 16:25:06;;;;;;;;;;;;;;;15.94;86.47;95129.25;10506741;28;1931;-72
2023/03/23 16:30:08;;;;;;;;;;;;;;;15.68;96.08;95127.38;10506967;28;1945;-73
2023/03/23 16:35:11;;;;;;;;;;;;;;;15.32;100.00;95148.56;10503951;28;1988;-73
2023/03/23 16:40:14;;;;;;;;;;;;;;;14.87;100.00;95144.22;10504188;28;1975;-72
2023/03/23 16:45:18;;;;;;;;;;;;;;;14.58;100.00;95152.13;10503506;28;1974;-73
2023/03/23 16:50:22;;;;;;;;;;;;;;;14.40;100.00;95143.13;10508722;28;1946;-72
2023/03/23 16:55:25;;;;;;;;;;;;;;;14.37;100.00;95143.72;10502206;28;1970;-73
2023/03/23 17:00:29;;;;;;;;;;;;;;;14.41;100.00;95141.22;10501675;28;2000;-74
2023/03/23 17:05:32;;;;;;;;;;;;;;;14.40;100.00;95140.41;10510265;28;2037;-72
2023/03/23 17:10:34;;;;;;;;;;;;;;;14.37;100.00;95143.72;10511751;28;1941;-75
2023/03/23 17:15:41;;;;;;;;;;;;;;;14.34;100.00;95149.78;10508550;28;2082;-77
2023/03/23 17:20:48;;;;;;;;;;;;;;;14.35;100.00;95156.78;10509919;28;1910;-75
2023/03/23 17:25:52;;;;;;;;;;;;;;;14.38;100.00;95145.34;10522418;28;1977;-76
2023/03/23 17:30:55;;;;;;;;;;;;;;;14.34;100.00;95144.38;10509034;28;1958;-75
2023/03/23 17:35:58;;;;;;;;;;;;;;;14.23;100.00;95146.56;10508371;28;2051;-72
2023/03/23 17:41:00;;;;;;;;;;;;;;;14.12;100.00;95147.13;10511619;28;1990;-71
2023/03/23 17:46:05;;;;;;;;;;;;;;;14.07;100.00;95151.56;10515051;28;2100;-72
2023/03/23 17:51:08;;;;;;;;;;;;;;;14.01;100.00;95157.44;10502621;28;2082;-71
2023/03/23 17:56:10;;;;;;;;;;;;;;;14.07;100.00;95162.38;10504160;28;2071;-70
2023/03/23 18:01:14;;;;;;;;;;;;;;;14.02;100.00;95151.72;10499256;28;1974;-72
2023/03/23 18:06:17;;;;;;;;;;;;;;;13.99;100.00;95160.41;10508001;28;1961;-72
2023/03/23 18:11:19;;;;;;;;;;;;;;;13.93;100.00;95169.78;10516812;28;2077;-74
2023/03/23 18:16:22;;;;;;;;;;;;;;;13.82;100.00;95173.84;10510153;28;2002;-73
2023/03/23 18:21:25;;;;;;;;;;;;;;;13.81;100.00;95174.97;10505602;28;1984;-70
2023/03/23 18:26:28;;;;;;;;;;;;;;;13.78;100.00;95170.94;10509420;28;2001;-71
2023/03/23 18:31:31;;;;;;;;;;;;;;;13.73;100.00;95189.19;10502782;28;1956;-71
2023/03/23 18:36:34;;;;;;;;;;;;;;;13.77;100.00;95184.78;10520622;28;1651;-73
2023/03/23 18:41:36;;;;;;;;;;;;;;;13.81;100.00;95185.75;10523658;28;1985;-73
2023/03/23 18:46:39;;;;;;;;;;;;;;;13.85;100.00;95184.03;10531111;28;1922;-73
2023/03/23 18:51:41;;;;;;;;;;;;;;;13.84;100.00;95189.75;10510981;28;1978;-74
2023/03/23 18:56:44;;;;;;;;;;;;;;;13.86;100.00;95188.31;10516301;28;1951;-76
2023/03/23 19:01:48;;;;;;;;;;;;;;;13.86;100.00;95193.72;10514985;28;1982;-73
2023/03/23 19:06:50;;;;;;;;;;;;;;;13.83;100.00;95196.25;10507165;28;2453;-72
2023/03/23 19:11:54;;;;;;;;;;;;;;;13.83;100.00;95205.16;10517418;28;2052;-74
2023/03/23 19:16:57;;;;;;;;;;;;;;;13.90;100.00;95196.59;10507386;28;2097;-73
2023/03/23 19:22:00;;;;;;;;;;;;;;;13.87;100.00;95192.63;10519493;28;1962;-74
2023/03/23 19:27:06;;;;;;;;;;;;;;;13.78;100.00;95192.56;10517708;28;2011;-75
2023/03/23 19:32:10;;;;;;;;;;;;;;;13.82;100.00;95191.97;10517601;28;1978;-72
2023/03/23 19:37:14;;;;;;;;;;;;;;;13.81;100.00;95193.88;10516712;28;2129;-75
2023/03/23 19:42:19;;;;;;;;;;;;;;;13.79;100.00;95198.75;10514589;28;1992;-73
2023/03/23 19:47:22;;;;;;;;;;;;;;;13.83;100.00;95194.34;10513251;28;1950;-74
2023/03/23 19:52:26;;;;;;;;;;;;;;;13.70;100.00;95206.81;10508726;28;1990;-73
2023/03/23 19:57:30;;;;;;;;;;;;;;;13.72;100.00;95195.69;10506584;28;2019;-73
2023/03/23 20:02:43;;;;;;;;;;;;;;;13.70;100.00;95200.63;10495195;28;2025;-73
2023/03/23 20:07:45;;;;;;;;;;;;;;;13.62;100.00;95199.44;10504621;28;2015;-73
2023/03/23 20:12:53;;;;;;;;;;;;;;;13.64;100.00;95197.22;10502770;28;2138;-75
2023/03/23 20:17:55;;;;;;;;;;;;;;;13.53;100.00;95196.66;10507923;28;1994;-74
2023/03/23 20:23:00;;;;;;;;;;;;;;;13.53;100.00;95195.88;10514291;28;1966;-74
2023/03/23 20:28:04;;;;;;;;;;;;;;;13.55;100.00;95192.84;10526262;28;1539;-74
2023/03/23 20:33:08;;;;;;;;;;;;;;;13.51;100.00;95192.69;10520728;28;1805;-73
2023/03/23 20:38:10;;;;;;;;;;;;;;;13.48;100.00;95196.78;10522011;28;1836;-72
2023/03/23 20:43:14;;;;;;;;;;;;;;;13.46;100.00;95204.41;10516922;28;1972;-73
2023/03/23 20:48:17;;;;;;;;;;;;;;;13.42;100.00;95195.31;10522350;28;1436;-73
2023/03/23 20:53:19;;;;;;;;;;;;;;;13.45;100.00;95194.69;10525271;28;1535;-75
2023/03/23 20:58:22;;;;;;;;;;;;;;;13.39;100.00;95193.22;10520649;28;1495;-75
2023/03/23 21:03:25;;;;;;;;;;;;;;;13.44;100.00;95187.72;10526621;28;1969;-73
2023/03/23 21:08:27;;;;;;;;;;;;;;;13.45;100.00;95194.69;10524861;28;1585;-73
2023/03/23 21:13:31;;;;;;;;;;;;;;;13.46;100.00;95185.50;10524353;28;1459;-73
2023/03/23 21:18:34;;;;;;;;;;;;;;;13.40;100.00;95180.53;10510477;28;1550;-74
2023/03/23 21:23:45;;;;;;;;;;;;;;;13.42;100.00;95179.13;10509999;28;1909;-75
2023/03/23 21:28:49;;;;;;;;;;;;;;;13.23;100.00;95173.06;10526452;28;1566;-73
2023/03/23 21:33:53;;;;;;;;;;;;;;;13.08;100.00;95170.69;10497470;28;1686;-75
2023/03/23 21:39:05;;;;;;;;;;;;;;;12.90;100.00;95172.41;10511201;28;1750;-71
2023/03/23 21:44:09;;;;;;;;;;;;;;;12.66;100.00;95172.66;10521471;28;1914;-72
2023/03/23 21:49:22;;;;;;;;;;;;;;;12.51;100.00;95168.38;10514492;28;1511;-74
2023/03/23 21:54:29;;;;;;;;;;;;;;;12.46;100.00;95165.78;10521598;28;1500;-73
2023/03/23 21:59:31;;;;;;;;;;;;;;;12.49;100.00;95167.88;10505886;28;1967;-72
2023/03/23 22:04:34;;;;;;;;;;;;;;;12.41;100.00;95153.22;10488667;28;2049;-74
2023/03/23 22:09:37;;;;;;;;;;;;;;;12.38;100.00;95145.72;10515588;28;1915;-72
2023/03/23 22:14:40;;;;;;;;;;;;;;;12.32;100.00;95135.34;10506540;28;2028;-76
2023/03/23 22:19:42;;;;;;;;;;;;;;;12.23;100.00;95131.75;10518396;28;2024;-75
2023/03/23 22:24:44;;;;;;;;;;;;;;;12.25;100.00;95119.56;10512488;28;2178;-74
2023/03/23 22:29:50;;;;;;;;;;;;;;;12.37;100.00;95111.78;10505965;28;1985;-73
2023/03/23 22:34:54;;;;;;;;;;;;;;;12.35;100.00;95105.09;10516333;28;2006;-73
2023/03/23 22:39:56;;;;;;;;;;;;;;;12.47;100.00;95093.78;10515528;28;2001;-73
2023/03/23 22:44:59;;;;;;;;;;;;;;;12.49;100.00;95097.00;10511632;28;2004;-73
2023/03/23 22:50:02;;;;;;;;;;;;;;;12.45;100.00;95088.69;10525579;28;1947;-73
2023/03/23 22:55:05;;;;;;;;;;;;;;;12.47;100.00;95077.59;10511585;28;2061;-72
2023/03/23 23:00:18;;;;;;;;;;;;;;;12.40;100.00;95073.44;10514391;28;1975;-72
2023/03/23 23:05:23;;;;;;;;;;;;;;;12.44;100.00;95065.53;10503364;28;2049;-76
2023/03/23 23:10:36;;;;;;;;;;;;;;;12.41;100.00;95069.66;10517056;28;2083;-73
2023/03/23 23:15:42;;;;;;;;;;;;;;;12.40;100.00;95062.66;10512798;28;2054;-72
2023/03/23 23:20:45;;;;;;;;;;;;;;;12.48;100.00;95053.06;10489283;28;2085;-74
2023/03/23 23:25:49;;;;;;;;;;;;;;;12.41;100.00;95048.09;10506025;28;1983;-73
2023/03/23 23:30:52;;;;;;;;;;;;;;;12.39;100.00;95044.88;10501700;28;2021;-72
2023/03/23 23:35:55;;;;;;;;;;;;;;;12.33;100.00;95038.00;10507966;28;2126;-72
2023/03/23 23:40:58;;;;;;;;;;;;;;;12.24;100.00;95026.34;10509305;28;2039;-72
2023/03/23 23:46:04;;;;;;;;;;;;;;;12.26;100.00;95034.94;10495541;28;2097;-72
2023/03/23 23:51:06;;;;;;;;;;;;;;;12.26;100.00;95028.75;10512118;28;1974;-74
2023/03/23 23:56:09;;;;;;;;;;;;;;;12.29;100.00;95033.53;10504049;28;2066;-72
